createdAt,value
2019-03-04T00:00:00.356Z,98406.98
2019-03-04T00:02:46.769Z,98424.17
2019-03-04T00:05:32.693Z,98419.51
2019-03-04T00:08:21.655Z,98405.56
2019-03-04T00:11:10.560Z,98423.37
2019-03-04T00:13:56.525Z,98396.62
2019-03-04T00:16:42.736Z,98400.26
2019-03-04T00:19:28.997Z,98385.72
2019-03-04T00:22:14.909Z,98378.33
2019-03-04T00:25:01.426Z,98374.05
2019-03-04T00:27:47.297Z,98365.53
2019-03-04T00:30:33.292Z,98366.45
2019-03-04T00:33:21.448Z,98350.95
2019-03-04T00:36:07.793Z,98343.94
2019-03-04T00:38:54.238Z,98353.16
2019-03-04T00:41:40.501Z,98354.95
2019-03-04T00:44:26.350Z,98341.20
2019-03-04T00:47:13.300Z,98337.73
2019-03-04T00:50:02.153Z,98325.41
2019-03-04T00:52:48.126Z,98312.75
2019-03-04T00:55:34.017Z,98314.67
2019-03-04T00:58:20.684Z,98303.28
2019-03-04T01:01:06.563Z,98298.80
2019-03-04T01:03:52.289Z,98273.83
2019-03-04T01:06:38.650Z,98258.89
2019-03-04T01:09:24.721Z,98252.16
2019-03-04T01:12:10.849Z,98250.33
2019-03-04T01:14:57.536Z,98224.39
2019-03-04T01:17:43.577Z,98208.97
2019-03-04T01:20:29.315Z,98211.64
2019-03-04T01:23:15.605Z,98205.23
2019-03-04T01:26:01.695Z,98204.42
2019-03-04T01:28:47.697Z,98204.63
2019-03-04T01:31:35.145Z,98218.52
2019-03-04T01:34:21.365Z,98208.77
2019-03-04T01:37:10.109Z,98198.93
2019-03-04T01:39:56.461Z,98205.16
2019-03-04T01:42:42.388Z,98197.78
2019-03-04T01:45:28.334Z,98173.38
2019-03-04T01:48:14.888Z,98178.71
2019-03-04T01:51:01.108Z,98171.61
2019-03-04T01:53:46.969Z,98187.64
2019-03-04T01:56:33.249Z,98176.41
2019-03-04T01:59:19.709Z,98158.95
2019-03-04T02:02:05.641Z,98139.80
2019-03-04T02:04:52.252Z,98129.66
2019-03-04T02:07:38.216Z,98133.70
2019-03-04T02:10:24.636Z,98134.59
2019-03-04T02:13:10.849Z,98121.31
2019-03-04T02:15:57.022Z,98117.84
2019-03-04T02:18:42.942Z,98114.09
2019-03-04T02:21:29.353Z,98084.84
2019-03-04T02:24:18.833Z,98067.41
2019-03-04T02:27:05.118Z,98067.94
2019-03-04T02:29:51.217Z,98067.48
2019-03-04T02:32:37.285Z,98067.18
2019-03-04T02:35:23.225Z,98070.31
2019-03-04T02:38:09.760Z,98074.58
2019-03-04T02:40:55.726Z,98038.51
2019-03-04T02:43:41.686Z,98053.83
2019-03-04T02:46:27.852Z,98042.64
2019-03-04T02:49:13.762Z,98042.92
2019-03-04T02:51:59.581Z,97996.80
2019-03-04T02:54:45.808Z,98004.65
2019-03-04T02:57:32.142Z,98007.70
2019-03-04T03:00:18.230Z,98002.59
2019-03-04T03:03:05.314Z,98001.44
2019-03-04T03:05:51.273Z,97996.42
2019-03-04T03:08:37.171Z,97982.05
2019-03-04T03:11:23.849Z,97984.35
2019-03-04T03:14:09.780Z,97970.76
2019-03-04T03:16:55.647Z,97962.98
2019-03-04T03:19:41.849Z,97965.81
2019-03-04T03:22:27.900Z,97968.65
2019-03-04T03:25:16.557Z,97960.41
2019-03-04T03:28:03.431Z,97961.47
2019-03-04T03:30:49.351Z,97955.52
2019-03-04T03:33:35.293Z,97944.45
2019-03-04T03:36:21.952Z,97932.39
2019-03-04T03:39:08.070Z,97919.73
2019-03-04T03:41:57.214Z,97909.22
2019-03-04T03:44:43.828Z,97901.81
2019-03-04T03:47:29.887Z,97891.09
2019-03-04T03:50:17.756Z,97867.69
2019-03-04T03:53:04.942Z,97858.94
2019-03-04T03:55:51.223Z,97858.70
2019-03-04T03:58:37.553Z,97843.00
2019-03-04T04:01:24.506Z,97801.26
2019-03-04T04:04:10.584Z,97763.83
2019-03-04T04:06:56.433Z,97787.95
2019-03-04T04:09:42.664Z,97792.80
2019-03-04T04:12:28.582Z,97805.02
2019-03-04T04:15:14.856Z,97807.82
2019-03-04T04:18:01.626Z,97776.05
2019-03-04T04:20:47.873Z,97763.64
2019-03-04T04:23:33.906Z,97759.67
2019-03-04T04:26:22.895Z,97741.70
2019-03-04T04:29:12.452Z,97716.42
2019-03-04T04:31:58.656Z,97728.02
2019-03-04T04:34:44.707Z,97702.30
2019-03-04T04:37:30.695Z,97718.25
2019-03-04T04:40:16.463Z,97715.67
2019-03-04T04:43:02.240Z,97687.39
2019-03-04T04:45:48.175Z,97663.19
2019-03-04T04:48:34.335Z,97664.30
2019-03-04T04:51:20.397Z,97634.68
2019-03-04T04:54:06.687Z,97585.43
2019-03-04T04:56:53.042Z,97597.16
2019-03-04T04:59:38.963Z,97645.66
2019-03-04T05:02:24.980Z,97616.08
2019-03-04T05:05:12.483Z,97656.88
2019-03-04T05:07:58.563Z,97619.98
2019-03-04T05:10:44.624Z,97642.78
2019-03-04T05:13:31.059Z,97633.98
2019-03-04T05:16:17.069Z,97619.88
2019-03-04T05:19:03.899Z,97623.64
2019-03-04T05:21:50.463Z,97614.00
2019-03-04T05:24:36.417Z,97613.44
2019-03-04T05:27:22.328Z,97601.92
2019-03-04T05:30:11.762Z,97601.42
2019-03-04T05:32:57.751Z,97599.63
2019-03-04T05:35:43.725Z,97589.42
2019-03-04T05:38:30.375Z,97578.75
2019-03-04T05:41:16.322Z,97554.48
2019-03-04T05:44:02.439Z,97568.05
2019-03-04T05:46:48.673Z,97569.06
2019-03-04T05:49:34.603Z,97572.96
2019-03-04T05:52:20.727Z,97564.06
2019-03-04T05:55:08.955Z,97565.64
2019-03-04T05:57:55.635Z,97540.18
2019-03-04T06:00:42.602Z,97538.05
2019-03-04T06:03:28.935Z,97527.27
2019-03-04T06:06:15.555Z,97529.87
2019-03-04T06:09:01.676Z,97527.36
2019-03-04T06:11:47.910Z,97516.16
2019-03-04T06:14:34.375Z,97512.85
2019-03-04T06:17:20.350Z,97507.66
2019-03-04T06:20:06.714Z,97491.26
2019-03-04T06:22:52.791Z,97496.13
2019-03-04T06:25:39.022Z,97496.69
2019-03-04T06:28:25.015Z,97477.64
2019-03-04T06:31:11.262Z,97462.20
2019-03-04T06:33:57.649Z,97435.05
2019-03-04T06:36:58.719Z,97424.02
2019-03-04T06:40:02.426Z,97443.65
2019-03-04T06:42:50.468Z,97426.33
2019-03-04T06:45:36.969Z,97447.48
2019-03-04T06:48:29.135Z,97421.17
2019-03-04T06:51:29.264Z,97428.03
2019-03-04T06:54:53.396Z,97417.23
2019-03-04T06:57:42.962Z,97440.86
2019-03-04T07:00:49.831Z,97482.38
2019-03-04T07:03:42.697Z,97701.36
2019-03-04T07:06:32.342Z,97651.92
2019-03-04T07:09:19.353Z,97661.95
2019-03-04T07:12:05.348Z,97649.59
2019-03-04T07:14:51.647Z,97679.52
2019-03-04T07:17:39.421Z,97644.13
2019-03-04T07:20:25.360Z,97672.77
2019-03-04T07:23:11.487Z,97664.20
2019-03-04T07:25:57.691Z,97679.04
2019-03-04T07:28:43.636Z,97657.83
2019-03-04T07:31:29.623Z,97662.59
2019-03-04T07:34:18.834Z,97641.61
2019-03-04T07:37:04.693Z,97602.70
2019-03-04T07:39:50.675Z,97545.95
2019-03-04T07:42:36.635Z,97572.85
2019-03-04T07:45:22.510Z,97564.62
2019-03-04T07:48:10.004Z,97575.41
2019-03-04T07:51:01.148Z,97581.14
2019-03-04T07:53:47.113Z,97581.52
2019-03-04T07:56:33.339Z,97582.55
2019-03-04T07:59:21.230Z,97589.55
2019-03-04T08:02:09.156Z,97599.11
2019-03-04T08:04:58.158Z,97600.42
2019-03-04T08:07:49.063Z,97589.92
2019-03-04T08:10:54.542Z,97577.42
2019-03-04T08:13:44.584Z,97575.49
2019-03-04T08:16:31.061Z,97589.75
2019-03-04T08:19:17.000Z,97595.80
2019-03-04T08:22:02.912Z,97593.29
2019-03-04T08:24:49.308Z,97604.23
2019-03-04T08:27:43.369Z,97599.83
2019-03-04T08:30:29.912Z,97603.02
2019-03-04T08:33:15.756Z,97608.79
2019-03-04T08:36:01.736Z,97603.58
2019-03-04T08:38:47.587Z,97593.66
2019-03-04T08:41:36.292Z,97601.46
2019-03-04T08:44:22.761Z,97607.92
2019-03-04T08:47:09.457Z,97612.89
2019-03-04T08:49:58.377Z,97602.48
2019-03-04T08:52:45.184Z,97596.93
2019-03-04T08:55:34.008Z,97625.05
2019-03-04T08:58:20.342Z,97619.23
2019-03-04T09:01:08.017Z,97641.27
2019-03-04T09:03:54.332Z,97642.48
2019-03-04T09:06:41.108Z,97641.38
2019-03-04T09:09:26.912Z,97649.48
2019-03-04T09:12:15.497Z,97655.25
2019-03-04T09:15:02.093Z,97659.09
2019-03-04T09:17:48.183Z,97643.50
2019-03-04T09:20:35.538Z,97644.36
2019-03-04T09:23:21.412Z,97629.26
2019-03-04T09:26:09.574Z,97622.36
2019-03-04T09:28:55.963Z,97626.08
2019-03-04T09:31:41.893Z,97621.61
2019-03-04T09:34:27.799Z,97598.75
2019-03-04T09:37:15.521Z,97616.05
2019-03-04T09:40:01.525Z,97602.27
2019-03-04T09:42:47.617Z,97605.27
2019-03-04T09:45:38.860Z,97608.80
2019-03-04T09:48:22.329Z,97616.94
2019-03-04T09:51:11.067Z,97612.97
2019-03-04T09:53:57.269Z,97603.91
2019-03-04T09:56:43.478Z,97589.50
2019-03-04T09:59:29.499Z,97592.39
2019-03-04T10:02:22.664Z,97594.05
2019-03-04T10:05:46.630Z,97597.84
2019-03-04T10:08:46.959Z,97583.39
2019-03-04T10:12:14.439Z,97589.86
2019-03-04T10:15:20.297Z,97608.66
2019-03-04T10:18:25.599Z,97602.20
2019-03-04T10:21:35.974Z,97581.04
2019-03-04T10:25:17.767Z,97608.46
2019-03-04T10:28:31.919Z,97592.52
2019-03-04T10:31:54.136Z,97605.64
2019-03-04T10:35:14.399Z,97634.86
2019-03-04T10:38:43.756Z,97649.69
2019-03-04T10:41:44.497Z,97674.61
2019-03-04T10:45:03.357Z,97686.11
2019-03-04T10:47:49.748Z,97672.70
2019-03-04T10:50:36.083Z,97667.36
2019-03-04T10:53:22.361Z,97671.35
2019-03-04T10:56:08.666Z,97654.25
2019-03-04T10:58:54.563Z,97654.45
2019-03-04T11:01:40.784Z,97647.47
2019-03-04T11:04:29.327Z,97637.50
2019-03-04T11:07:17.348Z,97635.20
2019-03-04T11:10:03.771Z,97625.47
2019-03-04T11:12:54.423Z,97629.34
2019-03-04T11:15:40.723Z,97631.99
2019-03-04T11:18:26.800Z,97629.20
2019-03-04T11:21:12.983Z,97626.70
2019-03-04T11:24:00.922Z,97622.19
2019-03-04T11:26:50.087Z,97611.28
2019-03-04T11:29:36.040Z,97603.57
2019-03-04T11:32:22.524Z,97610.62
2019-03-04T11:35:10.847Z,97613.63
2019-03-04T11:37:57.272Z,97599.89
2019-03-04T11:40:44.220Z,97598.21
2019-03-04T11:43:30.526Z,97585.67
2019-03-04T11:46:18.439Z,97584.23
2019-03-04T11:49:04.504Z,97599.31
2019-03-04T11:51:50.343Z,97614.87
2019-03-04T11:54:36.260Z,97649.73
2019-03-04T11:57:22.468Z,97757.02
2019-03-04T12:00:12.943Z,97753.19
2019-03-04T12:02:58.964Z,97757.03
2019-03-04T12:05:45.069Z,97765.38
2019-03-04T12:08:31.568Z,97761.93
2019-03-04T12:11:18.017Z,97760.95
2019-03-04T12:14:04.600Z,97753.87
2019-03-04T12:16:50.572Z,97749.07
2019-03-04T12:19:36.801Z,97738.88
2019-03-04T12:22:22.748Z,97742.89
2019-03-04T12:25:11.284Z,97750.55
2019-03-04T12:27:57.309Z,97750.31
2019-03-04T12:30:43.765Z,97767.20
2019-03-04T12:33:31.693Z,97771.20
2019-03-04T12:36:17.762Z,97782.53
2019-03-04T12:39:11.828Z,97791.02
2019-03-04T12:41:59.156Z,97801.73
2019-03-04T12:44:45.772Z,97791.19
2019-03-04T12:47:32.552Z,97796.61
2019-03-04T12:50:20.845Z,97820.08
2019-03-04T12:53:07.191Z,97830.41
2019-03-04T12:55:53.477Z,97838.44
2019-03-04T12:58:40.401Z,97844.97
2019-03-04T13:01:27.537Z,97859.61
2019-03-04T13:04:14.576Z,97855.02
2019-03-04T13:07:00.734Z,97855.02
2019-03-04T13:09:46.899Z,97856.89
2019-03-04T13:12:36.885Z,97870.75
2019-03-04T13:15:23.648Z,97865.31
2019-03-04T13:18:12.651Z,97869.20
2019-03-04T13:21:04.646Z,97869.70
2019-03-04T13:23:50.829Z,97865.81
2019-03-04T13:26:36.756Z,97879.41
2019-03-04T13:29:22.904Z,97883.86
2019-03-04T13:32:08.874Z,97888.08
2019-03-04T13:34:54.730Z,97897.66
2019-03-04T13:37:44.239Z,97900.31
2019-03-04T13:40:33.203Z,97907.30
2019-03-04T13:43:19.330Z,97903.66
2019-03-04T13:46:06.044Z,97908.36
2019-03-04T13:48:55.686Z,97910.17
2019-03-04T13:51:42.206Z,97907.25
2019-03-04T13:54:28.966Z,97921.09
2019-03-04T13:57:14.818Z,97917.48
2019-03-04T14:00:03.573Z,97924.76
2019-03-04T14:02:50.360Z,97932.25
2019-03-04T14:05:36.519Z,97953.83
2019-03-04T14:08:27.675Z,97948.91
2019-03-04T14:11:14.277Z,97947.30
2019-03-04T14:14:02.148Z,97948.95
2019-03-04T14:16:48.201Z,97962.21
2019-03-04T14:19:34.484Z,97976.67
2019-03-04T14:22:20.414Z,97970.18
2019-03-04T14:25:08.197Z,97977.79
2019-03-04T14:27:55.673Z,97993.13
2019-03-04T14:30:41.897Z,97993.67
2019-03-04T14:33:28.049Z,98010.89
2019-03-04T14:36:16.481Z,98019.91
2019-03-04T14:39:03.618Z,98022.50
2019-03-04T14:41:49.853Z,98016.56
2019-03-04T14:44:38.601Z,98034.13
2019-03-04T14:47:25.001Z,98033.13
2019-03-04T14:50:13.256Z,98040.83
2019-03-04T14:52:59.521Z,98051.03
2019-03-04T14:55:45.644Z,98050.63
2019-03-04T14:58:34.117Z,98051.17
2019-03-04T15:01:20.438Z,98059.94
2019-03-04T15:04:08.361Z,98065.17
2019-03-04T15:06:54.933Z,98071.34
2019-03-04T15:09:49.045Z,98079.79
2019-03-04T15:12:30.974Z,98081.32
2019-03-04T15:15:18.520Z,98078.66
2019-03-04T15:18:05.229Z,98088.84
2019-03-04T15:20:54.153Z,98101.61
2019-03-04T15:23:40.728Z,98092.64
2019-03-04T15:26:26.920Z,98109.12
2019-03-04T15:29:12.909Z,98113.28
2019-03-04T15:31:59.537Z,98134.15
2019-03-04T15:34:46.270Z,98122.12
2019-03-04T15:37:33.674Z,98136.06
2019-03-04T15:40:20.157Z,98145.98
2019-03-04T15:43:06.254Z,98139.72
2019-03-04T15:45:53.078Z,98144.60
2019-03-04T15:48:41.804Z,98162.25
2019-03-04T15:51:28.276Z,98167.67
2019-03-04T15:54:14.572Z,98183.79
2019-03-04T15:57:02.154Z,98182.69
2019-03-04T15:59:48.537Z,98188.23
2019-03-04T16:02:37.028Z,98202.41
2019-03-04T16:05:23.373Z,98211.30
2019-03-04T16:08:17.717Z,98204.98
2019-03-04T16:11:12.216Z,98211.82
2019-03-04T16:13:59.098Z,98226.89
2019-03-04T16:16:45.356Z,98223.37
2019-03-04T16:19:31.916Z,98233.64
2019-03-04T16:22:17.962Z,98240.56
2019-03-04T16:25:06.489Z,98247.52
2019-03-04T16:28:00.200Z,98248.83
2019-03-04T16:30:50.046Z,98260.55
2019-03-04T16:33:36.394Z,98251.88
2019-03-04T16:36:23.164Z,98272.82
2019-03-04T16:39:16.870Z,98285.66
2019-03-04T16:42:05.728Z,98289.58
2019-03-04T16:44:52.007Z,98291.71
2019-03-04T16:47:38.192Z,98302.98
2019-03-04T16:50:24.326Z,98305.20
2019-03-04T16:53:11.595Z,98311.20
2019-03-04T16:55:58.166Z,98326.23
2019-03-04T16:58:45.133Z,98329.78
2019-03-04T17:01:31.639Z,98334.17
2019-03-04T17:04:17.689Z,98341.53
2019-03-04T17:07:06.923Z,98344.55
2019-03-04T17:09:52.963Z,98358.19
2019-03-04T17:12:38.994Z,98345.08
2019-03-04T17:15:25.775Z,98360.84
2019-03-04T17:18:12.248Z,98368.88
2019-03-04T17:20:58.112Z,98373.39
2019-03-04T17:23:44.574Z,98380.75
2019-03-04T17:26:30.531Z,98389.31
2019-03-04T17:29:18.204Z,98383.45
2019-03-04T17:32:08.556Z,98402.92
2019-03-04T17:34:54.763Z,98400.35
2019-03-04T17:37:40.885Z,98411.01
2019-03-04T17:40:27.363Z,98422.59
2019-03-04T17:43:15.479Z,98413.91
2019-03-04T17:46:03.573Z,98421.89
2019-03-04T17:48:50.169Z,98425.02
2019-03-04T17:51:36.479Z,98430.09
2019-03-04T17:54:24.276Z,98436.23
2019-03-04T17:57:10.747Z,98445.41
2019-03-04T17:59:59.763Z,98448.50
2019-03-04T18:02:46.583Z,98449.45
2019-03-04T18:05:32.904Z,98454.75
2019-03-04T18:08:19.079Z,98460.58
2019-03-04T18:11:05.647Z,98461.06
2019-03-04T18:13:51.724Z,98466.89
2019-03-04T18:16:41.099Z,98477.81
2019-03-04T18:19:27.843Z,98485.94
2019-03-04T18:22:14.380Z,98478.53
2019-03-04T18:25:00.574Z,98484.82
2019-03-04T18:28:01.557Z,98484.61
2019-03-04T18:31:12.749Z,98495.27
2019-03-04T18:34:50.635Z,98503.97
2019-03-04T18:38:09.822Z,98502.04
2019-03-04T18:41:25.006Z,98501.80
2019-03-04T18:45:01.373Z,98502.28
2019-03-04T18:48:20.047Z,98508.84
2019-03-04T18:51:06.351Z,98511.48
2019-03-04T18:54:00.580Z,98514.63
2019-03-04T18:56:47.561Z,98510.88
2019-03-04T18:59:34.193Z,98516.76
2019-03-04T19:02:27.766Z,98512.66
2019-03-04T19:05:14.593Z,98517.20
2019-03-04T19:08:02.647Z,98512.48
2019-03-04T19:10:49.371Z,98515.16
2019-03-04T19:13:37.469Z,98518.58
2019-03-04T19:16:30.201Z,98524.13
2019-03-04T19:19:17.178Z,98529.41
2019-03-04T19:22:04.287Z,98530.05
2019-03-04T19:24:52.739Z,98528.91
2019-03-04T19:27:43.793Z,98535.03
2019-03-04T19:30:30.778Z,98539.83
2019-03-04T19:33:17.078Z,98533.78
2019-03-04T19:36:06.164Z,98530.26
2019-03-04T19:38:55.297Z,98536.55
2019-03-04T19:41:44.829Z,98536.14
2019-03-04T19:44:31.788Z,98540.11
2019-03-04T19:47:19.764Z,98539.59
2019-03-04T19:50:07.098Z,98546.77
2019-03-04T19:52:55.132Z,98548.03
2019-03-04T19:55:41.501Z,98550.36
2019-03-04T19:58:27.490Z,98553.78
2019-03-04T20:01:14.915Z,98554.15
2019-03-04T20:04:08.984Z,98555.63
2019-03-04T20:06:57.524Z,98554.78
2019-03-04T20:09:44.438Z,98558.96
2019-03-04T20:12:33.405Z,98561.47
2019-03-04T20:15:21.120Z,98559.18
2019-03-04T20:18:07.788Z,98563.82
2019-03-04T20:20:54.250Z,98562.72
2019-03-04T20:23:40.873Z,98577.08
2019-03-04T20:26:31.308Z,98571.59
2019-03-04T20:29:18.009Z,98573.31
2019-03-04T20:32:06.714Z,98577.90
2019-03-04T20:34:56.258Z,98575.33
2019-03-04T20:37:49.197Z,98577.17
2019-03-04T20:40:35.601Z,98583.16
2019-03-04T20:43:28.963Z,98578.86
2019-03-04T20:46:31.020Z,98581.19
2019-03-04T20:49:26.513Z,98581.22
2019-03-04T20:52:14.729Z,98582.82
2019-03-04T20:55:00.668Z,98582.78
2019-03-04T20:57:47.250Z,98584.80
2019-03-04T21:00:34.369Z,98586.16
2019-03-04T21:03:22.965Z,98585.02
2019-03-04T21:06:09.690Z,98574.48
2019-03-04T21:08:56.260Z,98584.08
2019-03-04T21:11:45.656Z,98581.66
2019-03-04T21:14:32.295Z,98582.03
2019-03-04T21:17:18.531Z,98581.47
2019-03-04T21:20:06.065Z,98593.86
2019-03-04T21:22:53.423Z,98596.14
2019-03-04T21:26:11.048Z,98601.44
2019-03-04T21:29:54.231Z,98601.34
2019-03-04T21:32:50.330Z,98613.79
2019-03-04T21:36:15.857Z,98607.16
2019-03-04T21:39:01.381Z,98607.91
2019-03-04T21:42:16.037Z,98611.60
2019-03-04T21:45:48.470Z,98610.34
2019-03-04T21:48:44.813Z,98603.27
2019-03-04T21:52:19.495Z,98613.67
2019-03-04T21:54:56.299Z,98611.91
2019-03-04T21:57:45.824Z,98606.86
2019-03-04T22:00:38.550Z,98605.23
2019-03-04T22:03:27.742Z,98600.26
2019-03-04T22:06:13.998Z,98602.73
2019-03-04T22:08:59.981Z,98605.83
2019-03-04T22:11:46.012Z,98602.38
2019-03-04T22:14:35.028Z,98601.37
2019-03-04T22:17:21.266Z,98608.84
2019-03-04T22:20:08.423Z,98614.31
2019-03-04T22:22:54.544Z,98619.12
2019-03-04T22:25:43.210Z,98622.20
2019-03-04T22:28:31.040Z,98608.44
2019-03-04T22:31:20.513Z,98631.05
2019-03-04T22:34:06.481Z,98638.66
2019-03-04T22:36:52.759Z,98644.40
2019-03-04T22:39:38.886Z,98648.35
2019-03-04T22:42:24.987Z,98632.48
2019-03-04T22:45:15.530Z,98662.42
2019-03-04T22:48:01.584Z,98652.54
2019-03-04T22:50:47.568Z,98650.56
2019-03-04T22:53:34.476Z,98653.27
2019-03-04T22:56:20.377Z,98653.77
2019-03-04T22:59:06.765Z,98657.27
2019-03-04T23:02:00.049Z,98671.84
2019-03-04T23:04:58.656Z,98662.11
2019-03-04T23:07:49.930Z,98663.95
2019-03-04T23:10:41.889Z,98662.33
2019-03-04T23:14:01.350Z,98663.12
2019-03-04T23:16:47.488Z,98661.94
2019-03-04T23:19:33.556Z,98663.10
2019-03-04T23:22:20.255Z,98662.63
2019-03-04T23:25:07.626Z,98659.19
2019-03-04T23:27:53.620Z,98666.88
2019-03-04T23:30:41.054Z,98664.58
2019-03-04T23:33:26.984Z,98653.36
2019-03-04T23:36:12.976Z,98662.07
2019-03-04T23:38:59.220Z,98660.07
2019-03-04T23:41:45.203Z,98661.02
2019-03-04T23:44:31.272Z,98654.80
2019-03-04T23:47:18.513Z,98651.91
2019-03-04T23:50:20.991Z,98655.62
2019-03-04T23:53:07.604Z,98671.80
2019-03-04T23:55:53.544Z,98655.95
2019-03-04T23:58:39.643Z,98662.81
